sensor_id;sensor_type;location;lat;lon;timestamp;pressure;altitude;pressure_sealevel;temperature;humidity
28306;BME280;7516;43.570;1.448;2023-09-08T00:02:18;99630.88;;;21.89;45.43
28306;BME280;7516;43.570;1.448;2023-09-08T00:04:46;99632.66;;;21.84;45.89
28306;BME280;7516;43.570;1.448;2023-09-08T00:07:13;99633.72;;;21.83;45.62
28306;BME280;7516;43.570;1.448;2023-09-08T00:09:41;99636.88;;;21.80;45.76
28306;BME280;7516;43.570;1.448;2023-09-08T00:12:10;99634.13;;;21.74;45.80
28306;BME280;7516;43.570;1.448;2023-09-08T00:14:37;99623.72;;;21.73;45.73
28306;BME280;7516;43.570;1.448;2023-09-08T00:17:05;99622.84;;;21.67;46.18
28306;BME280;7516;43.570;1.448;2023-09-08T00:19:33;99623.84;;;21.61;46.16
28306;BME280;7516;43.570;1.448;2023-09-08T00:22:00;99616.78;;;21.55;46.62
28306;BME280;7516;43.570;1.448;2023-09-08T00:24:28;99611.97;;;21.52;46.30
28306;BME280;7516;43.570;1.448;2023-09-08T00:26:56;99617.88;;;21.54;46.58
28306;BME280;7516;43.570;1.448;2023-09-08T00:29:25;99622.88;;;21.51;46.22
28306;BME280;7516;43.570;1.448;2023-09-08T00:31:52;99618.25;;;21.46;46.73
28306;BME280;7516;43.570;1.448;2023-09-08T00:34:20;99614.50;;;21.42;46.89
28306;BME280;7516;43.570;1.448;2023-09-08T00:36:47;99622.72;;;21.40;46.72
28306;BME280;7516;43.570;1.448;2023-09-08T00:39:15;99617.81;;;21.32;46.93
28306;BME280;7516;43.570;1.448;2023-09-08T00:41:42;99619.69;;;21.32;47.01
28306;BME280;7516;43.570;1.448;2023-09-08T00:44:11;99619.09;;;21.30;46.87
28306;BME280;7516;43.570;1.448;2023-09-08T00:46:40;99616.13;;;21.26;47.16
28306;BME280;7516;43.570;1.448;2023-09-08T00:49:07;99612.09;;;21.24;47.08
28306;BME280;7516;43.570;1.448;2023-09-08T00:51:35;99604.84;;;21.19;47.41
28306;BME280;7516;43.570;1.448;2023-09-08T00:54:05;99618.41;;;21.18;47.47
28306;BME280;7516;43.570;1.448;2023-09-08T00:56:33;99612.25;;;21.17;47.12
28306;BME280;7516;43.570;1.448;2023-09-08T00:59:01;99613.88;;;21.18;47.33
28306;BME280;7516;43.570;1.448;2023-09-08T01:01:29;99609.81;;;21.16;47.26
28306;BME280;7516;43.570;1.448;2023-09-08T01:03:58;99615.63;;;21.13;47.43
28306;BME280;7516;43.570;1.448;2023-09-08T01:06:26;99612.41;;;21.11;47.26
28306;BME280;7516;43.570;1.448;2023-09-08T01:08:55;99603.59;;;21.10;47.48
28306;BME280;7516;43.570;1.448;2023-09-08T01:11:23;99601.41;;;21.07;47.48
28306;BME280;7516;43.570;1.448;2023-09-08T01:13:50;99604.31;;;21.06;47.37
28306;BME280;7516;43.570;1.448;2023-09-08T01:16:18;99605.59;;;21.03;47.33
28306;BME280;7516;43.570;1.448;2023-09-08T01:18:46;99606.34;;;20.98;47.77
28306;BME280;7516;43.570;1.448;2023-09-08T01:21:32;99607.84;;;20.94;47.68
28306;BME280;7516;43.570;1.448;2023-09-08T01:24:18;99611.25;;;20.90;47.81
28306;BME280;7516;43.570;1.448;2023-09-08T01:26:55;99609.16;;;20.92;47.76
28306;BME280;7516;43.570;1.448;2023-09-08T01:29:23;99609.06;;;20.87;47.80
28306;BME280;7516;43.570;1.448;2023-09-08T01:31:51;99600.84;;;20.88;48.12
28306;BME280;7516;43.570;1.448;2023-09-08T01:34:20;99614.97;;;20.89;47.77
28306;BME280;7516;43.570;1.448;2023-09-08T01:36:47;99611.97;;;20.85;47.75
28306;BME280;7516;43.570;1.448;2023-09-08T01:39:15;99611.91;;;20.80;48.00
28306;BME280;7516;43.570;1.448;2023-09-08T01:41:42;99610.75;;;20.76;48.29
28306;BME280;7516;43.570;1.448;2023-09-08T01:44:11;99613.41;;;20.76;48.34
28306;BME280;7516;43.570;1.448;2023-09-08T01:46:39;99616.47;;;20.68;48.72
28306;BME280;7516;43.570;1.448;2023-09-08T01:49:07;99621.25;;;20.66;48.78
28306;BME280;7516;43.570;1.448;2023-09-08T01:51:34;99611.06;;;20.63;48.73
28306;BME280;7516;43.570;1.448;2023-09-08T01:54:02;99607.53;;;20.57;48.76
28306;BME280;7516;43.570;1.448;2023-09-08T01:56:29;99604.53;;;20.54;48.85
28306;BME280;7516;43.570;1.448;2023-09-08T01:58:57;99600.16;;;20.48;48.96
28306;BME280;7516;43.570;1.448;2023-09-08T02:01:26;99596.69;;;20.47;49.48
28306;BME280;7516;43.570;1.448;2023-09-08T02:03:54;99601.22;;;20.47;49.52
28306;BME280;7516;43.570;1.448;2023-09-08T02:06:21;99601.22;;;20.47;49.38
28306;BME280;7516;43.570;1.448;2023-09-08T02:08:49;99593.69;;;20.44;49.50
28306;BME280;7516;43.570;1.448;2023-09-08T02:11:16;99591.03;;;20.44;50.08
28306;BME280;7516;43.570;1.448;2023-09-08T02:13:44;99591.03;;;20.44;49.74
28306;BME280;7516;43.570;1.448;2023-09-08T02:16:14;99587.78;;;20.42;50.22
28306;BME280;7516;43.570;1.448;2023-09-08T02:18:43;99581.41;;;20.43;50.14
28306;BME280;7516;43.570;1.448;2023-09-08T02:21:11;99578.75;;;20.43;50.18
28306;BME280;7516;43.570;1.448;2023-09-08T02:23:38;99583.03;;;20.44;50.18
28306;BME280;7516;43.570;1.448;2023-09-08T02:26:06;99584.06;;;20.43;50.01
28306;BME280;7516;43.570;1.448;2023-09-08T02:28:33;99579.25;;;20.40;50.27
28306;BME280;7516;43.570;1.448;2023-09-08T02:31:01;99578.91;;;20.36;50.60
28306;BME280;7516;43.570;1.448;2023-09-08T02:33:28;99570.56;;;20.33;50.47
28306;BME280;7516;43.570;1.448;2023-09-08T02:36:02;99573.22;;;20.33;50.68
28306;BME280;7516;43.570;1.448;2023-09-08T02:38:30;99579.03;;;20.29;50.50
28306;BME280;7516;43.570;1.448;2023-09-08T02:40:57;99574.75;;;20.28;50.85
28306;BME280;7516;43.570;1.448;2023-09-08T02:43:25;99569.91;;;20.25;51.03
28306;BME280;7516;43.570;1.448;2023-09-08T02:45:53;99582.06;;;20.21;50.68
28306;BME280;7516;43.570;1.448;2023-09-08T02:48:20;99581.28;;;20.21;51.09
28306;BME280;7516;43.570;1.448;2023-09-08T02:50:48;99579.66;;;20.20;51.09
28306;BME280;7516;43.570;1.448;2023-09-08T02:53:17;99583.59;;;20.17;50.89
28306;BME280;7516;43.570;1.448;2023-09-08T02:55:46;99582.78;;;20.17;51.03
28306;BME280;7516;43.570;1.448;2023-09-08T02:58:14;99580.34;;;20.15;51.03
28306;BME280;7516;43.570;1.448;2023-09-08T03:00:41;99591.25;;;20.14;51.14
28306;BME280;7516;43.570;1.448;2023-09-08T03:03:09;99588.94;;;20.06;51.16
28306;BME280;7516;43.570;1.448;2023-09-08T03:05:36;99599.84;;;20.04;51.34
28306;BME280;7516;43.570;1.448;2023-09-08T03:08:04;99597.19;;;20.04;51.32
28306;BME280;7516;43.570;1.448;2023-09-08T03:10:34;99598.69;;;20.00;51.27
28306;BME280;7516;43.570;1.448;2023-09-08T03:13:02;99605.28;;;19.98;51.82
28306;BME280;7516;43.570;1.448;2023-09-08T03:15:29;99601.81;;;19.97;51.78
28306;BME280;7516;43.570;1.448;2023-09-08T03:17:58;99599.53;;;19.89;51.86
28306;BME280;7516;43.570;1.448;2023-09-08T03:20:25;99604.75;;;19.84;51.97
28306;BME280;7516;43.570;1.448;2023-09-08T03:22:54;99609.72;;;19.80;52.16
28306;BME280;7516;43.570;1.448;2023-09-08T03:25:22;99608.69;;;19.81;52.44
28306;BME280;7516;43.570;1.448;2023-09-08T03:27:51;99609.97;;;19.79;52.43
28306;BME280;7516;43.570;1.448;2023-09-08T03:30:18;99607.53;;;19.77;52.53
28306;BME280;7516;43.570;1.448;2023-09-08T03:32:46;99606.63;;;19.72;52.71
28306;BME280;7516;43.570;1.448;2023-09-08T03:35:13;99604.91;;;19.66;53.02
28306;BME280;7516;43.570;1.448;2023-09-08T03:37:41;99605.72;;;19.66;52.93
28306;BME280;7516;43.570;1.448;2023-09-08T03:40:09;99608.59;;;19.65;52.96
28306;BME280;7516;43.570;1.448;2023-09-08T03:42:37;99604.09;;;19.65;53.16
28306;BME280;7516;43.570;1.448;2023-09-08T03:45:07;99600.63;;;19.65;53.27
28306;BME280;7516;43.570;1.448;2023-09-08T03:47:34;99600.63;;;19.65;53.47
28306;BME280;7516;43.570;1.448;2023-09-08T03:50:02;99595.06;;;19.66;53.13
28306;BME280;7516;43.570;1.448;2023-09-08T03:52:30;99599.00;;;19.64;53.28
28306;BME280;7516;43.570;1.448;2023-09-08T03:54:57;99603.50;;;19.63;53.04
28306;BME280;7516;43.570;1.448;2023-09-08T03:57:25;99604.09;;;19.65;53.19
28306;BME280;7516;43.570;1.448;2023-09-08T03:59:52;99608.38;;;19.66;53.18
28306;BME280;7516;43.570;1.448;2023-09-08T04:02:21;99602.47;;;19.64;53.04
28306;BME280;7516;43.570;1.448;2023-09-08T04:04:48;99602.25;;;19.66;53.49
28306;BME280;7516;43.570;1.448;2023-09-08T04:07:16;99597.72;;;19.66;53.52
28306;BME280;7516;43.570;1.448;2023-09-08T04:09:43;99604.09;;;19.65;53.63
28306;BME280;7516;43.570;1.448;2023-09-08T04:12:11;99597.97;;;19.65;53.53
28306;BME280;7516;43.570;1.448;2023-09-08T04:14:38;99600.63;;;19.65;53.52
28306;BME280;7516;43.570;1.448;2023-09-08T04:17:06;99593.91;;;19.62;54.28
28306;BME280;7516;43.570;1.448;2023-09-08T04:19:35;99592.53;;;19.60;54.11
28306;BME280;7516;43.570;1.448;2023-09-08T04:22:03;99590.22;;;19.63;54.19
28306;BME280;7516;43.570;1.448;2023-09-08T04:24:35;99587.78;;;19.62;54.93
28306;BME280;7516;43.570;1.448;2023-09-08T04:27:03;99582.47;;;19.62;54.50
28306;BME280;7516;43.570;1.448;2023-09-08T04:29:32;99577.72;;;19.64;54.46
28306;BME280;7516;43.570;1.448;2023-09-08T04:31:59;99576.00;;;19.69;55.13
28306;BME280;7516;43.570;1.448;2023-09-08T04:34:26;99578.41;;;19.71;54.48
28306;BME280;7516;43.570;1.448;2023-09-08T04:36:55;99576.81;;;19.70;54.53
28306;BME280;7516;43.570;1.448;2023-09-08T04:39:23;99580.75;;;19.67;54.72
28306;BME280;7516;43.570;1.448;2023-09-08T04:41:50;99578.41;;;19.71;54.52
28306;BME280;7516;43.570;1.448;2023-09-08T04:44:18;99576.31;;;19.73;54.44
28306;BME280;7516;43.570;1.448;2023-09-08T04:46:45;99582.69;;;19.72;54.30
28306;BME280;7516;43.570;1.448;2023-09-08T04:49:13;99585.81;;;19.69;54.63
28306;BME280;7516;43.570;1.448;2023-09-08T04:51:40;99583.72;;;19.71;54.74
28306;BME280;7516;43.570;1.448;2023-09-08T04:54:09;99579.78;;;19.73;54.51
28306;BME280;7516;43.570;1.448;2023-09-08T04:56:37;99580.13;;;19.77;54.75
28306;BME280;7516;43.570;1.448;2023-09-08T04:59:05;99576.44;;;19.78;54.29
28306;BME280;7516;43.570;1.448;2023-09-08T05:01:32;99579.66;;;19.80;54.61
28306;BME280;7516;43.570;1.448;2023-09-08T05:04:03;99583.94;;;19.81;54.38
28306;BME280;7516;43.570;1.448;2023-09-08T05:06:30;99580.81;;;19.84;54.20
28306;BME280;7516;43.570;1.448;2023-09-08T05:08:59;99584.94;;;19.91;54.53
28306;BME280;7516;43.570;1.448;2023-09-08T05:11:28;99591.06;;;19.92;53.69
28306;BME280;7516;43.570;1.448;2023-09-08T05:13:55;99591.88;;;19.92;54.00
28306;BME280;7516;43.570;1.448;2023-09-08T05:16:23;99590.84;;;19.94;53.56
28306;BME280;7516;43.570;1.448;2023-09-08T05:19:03;99596.97;;;19.94;53.68
28306;BME280;7516;43.570;1.448;2023-09-08T05:21:31;99603.13;;;19.95;53.26
28306;BME280;7516;43.570;1.448;2023-09-08T05:23:59;99613.75;;;19.95;53.32
28306;BME280;7516;43.570;1.448;2023-09-08T05:26:28;99612.94;;;19.94;53.42
28306;BME280;7516;43.570;1.448;2023-09-08T05:28:55;99610.28;;;19.94;53.24
28306;BME280;7516;43.570;1.448;2023-09-08T05:31:22;99609.78;;;19.97;53.52
28306;BME280;7516;43.570;1.448;2023-09-08T05:33:50;99609.78;;;19.97;53.00
28306;BME280;7516;43.570;1.448;2023-09-08T05:36:17;99616.28;;;20.01;53.17
28306;BME280;7516;43.570;1.448;2023-09-08T05:38:45;99622.97;;;20.04;53.42
28306;BME280;7516;43.570;1.448;2023-09-08T05:41:12;99616.84;;;20.03;53.27
28306;BME280;7516;43.570;1.448;2023-09-08T05:43:41;99619.03;;;20.06;53.09
28306;BME280;7516;43.570;1.448;2023-09-08T05:46:09;99616.94;;;20.08;53.05
28306;BME280;7516;43.570;1.448;2023-09-08T05:48:36;99619.94;;;20.12;53.09
28306;BME280;7516;43.570;1.448;2023-09-08T05:51:04;99620.25;;;20.15;52.93
28306;BME280;7516;43.570;1.448;2023-09-08T05:53:32;99619.66;;;20.25;52.58
28306;BME280;7516;43.570;1.448;2023-09-08T05:56:01;99625.56;;;20.27;52.60
28306;BME280;7516;43.570;1.448;2023-09-08T05:58:29;99629.38;;;20.31;52.66
28306;BME280;7516;43.570;1.448;2023-09-08T06:00:58;99621.94;;;20.33;52.74
28306;BME280;7516;43.570;1.448;2023-09-08T06:03:26;99629.84;;;20.40;52.59
28306;BME280;7516;43.570;1.448;2023-09-08T06:05:54;99623.44;;;20.41;52.52
28306;BME280;7516;43.570;1.448;2023-09-08T06:08:21;99634.44;;;20.44;52.15
28306;BME280;7516;43.570;1.448;2023-09-08T06:10:49;99631.53;;;20.46;52.20
28306;BME280;7516;43.570;1.448;2023-09-08T06:13:17;99635.59;;;20.48;51.99
28306;BME280;7516;43.570;1.448;2023-09-08T06:15:44;99636.94;;;20.51;52.37
28306;BME280;7516;43.570;1.448;2023-09-08T06:18:13;99640.19;;;20.53;51.94
28306;BME280;7516;43.570;1.448;2023-09-08T06:20:45;99641.34;;;20.57;52.46
28306;BME280;7516;43.570;1.448;2023-09-08T06:23:13;99642.69;;;20.59;51.97
28306;BME280;7516;43.570;1.448;2023-09-08T06:25:41;99641.19;;;20.63;52.02
28306;BME280;7516;43.570;1.448;2023-09-08T06:28:08;99641.41;;;20.62;52.23
28306;BME280;7516;43.570;1.448;2023-09-08T06:30:36;99647.91;;;20.66;52.50
28306;BME280;7516;43.570;1.448;2023-09-08T06:33:07;99643.69;;;20.70;52.26
28306;BME280;7516;43.570;1.448;2023-09-08T06:35:37;99644.03;;;20.74;51.98
28306;BME280;7516;43.570;1.448;2023-09-08T06:38:05;99649.66;;;20.77;51.92
28306;BME280;7516;43.570;1.448;2023-09-08T06:40:32;99656.16;;;20.81;52.16
28306;BME280;7516;43.570;1.448;2023-09-08T06:43:00;99653.56;;;20.86;51.80
28306;BME280;7516;43.570;1.448;2023-09-08T06:45:27;99656.78;;;20.88;51.71
28306;BME280;7516;43.570;1.448;2023-09-08T06:47:55;99656.56;;;20.90;51.49
28306;BME280;7516;43.570;1.448;2023-09-08T06:50:23;99668.09;;;20.95;51.61
28306;BME280;7516;43.570;1.448;2023-09-08T06:52:52;99667.16;;;21.01;51.31
28306;BME280;7516;43.570;1.448;2023-09-08T06:55:20;99671.50;;;21.08;51.50
28306;BME280;7516;43.570;1.448;2023-09-08T06:57:47;99671.34;;;21.14;51.18
28306;BME280;7516;43.570;1.448;2023-09-08T07:00:15;99675.50;;;21.22;51.05
28306;BME280;7516;43.570;1.448;2023-09-08T07:02:46;99671.38;;;21.31;50.96
28306;BME280;7516;43.570;1.448;2023-09-08T07:05:15;99669.63;;;21.36;50.72
28306;BME280;7516;43.570;1.448;2023-09-08T07:07:43;99662.50;;;21.42;50.34
28306;BME280;7516;43.570;1.448;2023-09-08T07:10:13;99663.47;;;21.53;50.22
28306;BME280;7516;43.570;1.448;2023-09-08T07:12:40;99677.66;;;21.58;49.83
28306;BME280;7516;43.570;1.448;2023-09-08T07:15:09;99667.63;;;21.65;49.85
28306;BME280;7516;43.570;1.448;2023-09-08T07:17:36;99669.88;;;21.73;50.00
28306;BME280;7516;43.570;1.448;2023-09-08T07:20:05;99662.53;;;21.81;49.54
28306;BME280;7516;43.570;1.448;2023-09-08T07:22:33;99670.09;;;21.89;49.31
28306;BME280;7516;43.570;1.448;2023-09-08T07:25:00;99665.38;;;21.96;48.97
28306;BME280;7516;43.570;1.448;2023-09-08T07:27:29;99663.59;;;22.01;49.13
28306;BME280;7516;43.570;1.448;2023-09-08T07:29:57;99666.09;;;22.08;48.92
28306;BME280;7516;43.570;1.448;2023-09-08T07:32:24;99666.72;;;22.15;48.63
28306;BME280;7516;43.570;1.448;2023-09-08T07:34:52;99664.34;;;22.19;48.54
28306;BME280;7516;43.570;1.448;2023-09-08T07:37:21;99672.19;;;22.25;48.37
28306;BME280;7516;43.570;1.448;2023-09-08T07:39:49;99672.00;;;22.32;48.04
28306;BME280;7516;43.570;1.448;2023-09-08T07:42:17;99674.78;;;22.42;47.99
28306;BME280;7516;43.570;1.448;2023-09-08T07:44:47;99680.97;;;22.47;47.80
28306;BME280;7516;43.570;1.448;2023-09-08T07:47:14;99680.22;;;22.52;47.81
28306;BME280;7516;43.570;1.448;2023-09-08T07:49:46;99678.19;;;22.59;47.66
28306;BME280;7516;43.570;1.448;2023-09-08T07:52:14;99692.72;;;22.68;47.23
28306;BME280;7516;43.570;1.448;2023-09-08T07:54:41;99693.34;;;22.75;47.21
28306;BME280;7516;43.570;1.448;2023-09-08T07:57:09;99685.53;;;22.74;47.22
28306;BME280;7516;43.570;1.448;2023-09-08T07:59:36;99684.63;;;22.85;46.81
28306;BME280;7516;43.570;1.448;2023-09-08T08:02:05;99692.75;;;22.95;46.29
28306;BME280;7516;43.570;1.448;2023-09-08T08:04:33;99690.09;;;23.00;46.35
28306;BME280;7516;43.570;1.448;2023-09-08T08:07:01;99696.56;;;23.04;46.17
28306;BME280;7516;43.570;1.448;2023-09-08T08:09:28;99695.53;;;23.10;46.20
28306;BME280;7516;43.570;1.448;2023-09-08T08:11:56;99695.56;;;23.15;46.17
28306;BME280;7516;43.570;1.448;2023-09-08T08:14:24;99694.59;;;23.26;46.06
28306;BME280;7516;43.570;1.448;2023-09-08T08:16:51;99705.63;;;23.35;45.29
28306;BME280;7516;43.570;1.448;2023-09-08T08:19:20;99705.16;;;23.43;45.16
28306;BME280;7516;43.570;1.448;2023-09-08T08:21:47;99708.69;;;23.49;44.59
28306;BME280;7516;43.570;1.448;2023-09-08T08:24:15;99710.13;;;23.56;44.81
28306;BME280;7516;43.570;1.448;2023-09-08T08:26:42;99700.22;;;23.57;44.91
28306;BME280;7516;43.570;1.448;2023-09-08T08:29:10;99705.34;;;23.63;44.74
28306;BME280;7516;43.570;1.448;2023-09-08T08:31:37;99705.13;;;23.70;44.65
28306;BME280;7516;43.570;1.448;2023-09-08T08:34:05;99701.44;;;23.81;44.15
28306;BME280;7516;43.570;1.448;2023-09-08T08:36:33;99708.44;;;23.87;43.83
28306;BME280;7516;43.570;1.448;2023-09-08T08:39:01;99705.25;;;23.90;44.04
28306;BME280;7516;43.570;1.448;2023-09-08T08:41:31;99713.59;;;23.99;43.75
28306;BME280;7516;43.570;1.448;2023-09-08T08:44:00;99716.84;;;24.06;43.68
28306;BME280;7516;43.570;1.448;2023-09-08T08:46:28;99714.72;;;24.13;43.30
28306;BME280;7516;43.570;1.448;2023-09-08T08:48:57;99714.47;;;24.20;42.74
28306;BME280;7516;43.570;1.448;2023-09-08T08:51:26;99723.66;;;24.29;42.58
28306;BME280;7516;43.570;1.448;2023-09-08T08:53:56;99721.03;;;24.34;42.08
28306;BME280;7516;43.570;1.448;2023-09-08T08:56:24;99722.63;;;24.35;42.29
28306;BME280;7516;43.570;1.448;2023-09-08T08:58:52;99714.59;;;24.40;41.92
28306;BME280;7516;43.570;1.448;2023-09-08T09:01:20;99725.31;;;24.45;41.67
28306;BME280;7516;43.570;1.448;2023-09-08T09:03:49;99722.97;;;24.54;41.57
28306;BME280;7516;43.570;1.448;2023-09-08T09:06:17;99717.06;;;24.57;41.63
28306;BME280;7516;43.570;1.448;2023-09-08T09:08:45;99723.53;;;24.66;41.18
28306;BME280;7516;43.570;1.448;2023-09-08T09:11:14;99723.56;;;24.76;40.64
28306;BME280;7516;43.570;1.448;2023-09-08T09:13:42;99720.63;;;24.83;40.62
28306;BME280;7516;43.570;1.448;2023-09-08T09:16:10;99717.41;;;24.86;40.71
28306;BME280;7516;43.570;1.448;2023-09-08T09:18:54;99716.09;;;24.88;40.91
28306;BME280;7516;43.570;1.448;2023-09-08T09:21:22;99708.31;;;24.92;40.44
28306;BME280;7516;43.570;1.448;2023-09-08T09:23:50;99710.47;;;25.00;40.40
28306;BME280;7516;43.570;1.448;2023-09-08T09:26:26;99711.31;;;25.05;40.20
28306;BME280;7516;43.570;1.448;2023-09-08T09:28:53;99707.81;;;25.10;40.33
28306;BME280;7516;43.570;1.448;2023-09-08T09:31:24;99705.41;;;25.19;39.55
28306;BME280;7516;43.570;1.448;2023-09-08T09:34:05;99707.00;;;25.25;39.87
28306;BME280;7516;43.570;1.448;2023-09-08T09:36:32;99706.75;;;25.31;39.70
28306;BME280;7516;43.570;1.448;2023-09-08T09:39:00;99697.91;;;25.41;39.52
28306;BME280;7516;43.570;1.448;2023-09-08T09:41:30;99695.72;;;25.53;38.99
28306;BME280;7516;43.570;1.448;2023-09-08T09:43:57;99693.59;;;25.55;38.60
28306;BME280;7516;43.570;1.448;2023-09-08T09:46:28;99709.16;;;25.58;38.65
28306;BME280;7516;43.570;1.448;2023-09-08T09:48:56;99701.38;;;25.67;39.09
28306;BME280;7516;43.570;1.448;2023-09-08T09:51:24;99696.00;;;25.72;38.49
28306;BME280;7516;43.570;1.448;2023-09-08T09:53:52;99694.63;;;25.79;38.36
28306;BME280;7516;43.570;1.448;2023-09-08T09:56:20;99704.03;;;25.82;38.23
28306;BME280;7516;43.570;1.448;2023-09-08T09:58:53;99700.25;;;25.93;37.96
28306;BME280;7516;43.570;1.448;2023-09-08T10:01:24;99692.16;;;25.98;37.75
28306;BME280;7516;43.570;1.448;2023-09-08T10:03:53;99690.56;;;26.02;37.21
28306;BME280;7516;43.570;1.448;2023-09-08T10:06:21;99684.88;;;26.09;37.57
28306;BME280;7516;43.570;1.448;2023-09-08T10:08:49;99688.34;;;26.14;37.49
28306;BME280;7516;43.570;1.448;2023-09-08T10:11:21;99690.22;;;26.19;37.16
28306;BME280;7516;43.570;1.448;2023-09-08T10:13:52;99690.75;;;26.21;37.59
28306;BME280;7516;43.570;1.448;2023-09-08T10:16:21;99685.88;;;26.23;37.41
28306;BME280;7516;43.570;1.448;2023-09-08T10:18:50;99686.69;;;26.34;37.35
28306;BME280;7516;43.570;1.448;2023-09-08T10:21:19;99679.97;;;26.36;36.95
28306;BME280;7516;43.570;1.448;2023-09-08T10:23:51;99678.56;;;26.44;36.64
28306;BME280;7516;43.570;1.448;2023-09-08T10:26:24;99678.03;;;26.47;36.67
28306;BME280;7516;43.570;1.448;2023-09-08T10:28:55;99679.06;;;26.56;36.93
28306;BME280;7516;43.570;1.448;2023-09-08T10:31:25;99679.28;;;26.59;36.71
28306;BME280;7516;43.570;1.448;2023-09-08T10:33:54;99688.41;;;26.64;36.42
28306;BME280;7516;43.570;1.448;2023-09-08T10:36:22;99681.66;;;26.66;36.34
28306;BME280;7516;43.570;1.448;2023-09-08T10:38:50;99679.22;;;26.70;36.47
28306;BME280;7516;43.570;1.448;2023-09-08T10:41:28;99677.59;;;26.74;36.35
28306;BME280;7516;43.570;1.448;2023-09-08T10:44:02;99682.06;;;26.83;36.22
28306;BME280;7516;43.570;1.448;2023-09-08T10:46:33;99670.50;;;26.88;35.98
28306;BME280;7516;43.570;1.448;2023-09-08T10:49:05;99670.41;;;27.03;35.61
28306;BME280;7516;43.570;1.448;2023-09-08T10:51:43;99673.56;;;27.10;35.78
28306;BME280;7516;43.570;1.448;2023-09-08T10:54:11;99671.69;;;27.11;35.85
28306;BME280;7516;43.570;1.448;2023-09-08T10:56:53;99671.69;;;27.11;35.03
28306;BME280;7516;43.570;1.448;2023-09-08T10:59:27;99667.09;;;27.16;35.22
28306;BME280;7516;43.570;1.448;2023-09-08T11:01:55;99673.75;;;27.19;35.74
28306;BME280;7516;43.570;1.448;2023-09-08T11:04:24;99667.84;;;27.22;35.62
28306;BME280;7516;43.570;1.448;2023-09-08T11:06:56;99665.38;;;27.25;35.70
28306;BME280;7516;43.570;1.448;2023-09-08T11:09:24;99660.41;;;27.38;35.27
28306;BME280;7516;43.570;1.448;2023-09-08T11:11:51;99670.06;;;27.44;35.07
28306;BME280;7516;43.570;1.448;2023-09-08T11:14:19;99664.19;;;27.37;35.30
28306;BME280;7516;43.570;1.448;2023-09-08T11:16:46;99663.06;;;27.43;35.06
28306;BME280;7516;43.570;1.448;2023-09-08T11:19:14;99659.19;;;27.54;34.87
28306;BME280;7516;43.570;1.448;2023-09-08T11:21:42;99652.97;;;27.53;34.82
28306;BME280;7516;43.570;1.448;2023-09-08T11:24:10;99652.69;;;27.60;34.84
28306;BME280;7516;43.570;1.448;2023-09-08T11:26:41;99655.84;;;27.67;34.68
28306;BME280;7516;43.570;1.448;2023-09-08T11:29:12;99649.75;;;27.80;34.70
28306;BME280;7516;43.570;1.448;2023-09-08T11:31:40;99649.75;;;27.80;34.48
28306;BME280;7516;43.570;1.448;2023-09-08T11:34:08;99651.09;;;27.83;34.98
28306;BME280;7516;43.570;1.448;2023-09-08T11:36:39;99636.34;;;27.99;33.81
28306;BME280;7516;43.570;1.448;2023-09-08T11:39:10;99636.63;;;27.97;34.41
28306;BME280;7516;43.570;1.448;2023-09-08T11:41:38;99640.63;;;28.00;34.13
28306;BME280;7516;43.570;1.448;2023-09-08T11:44:06;99640.00;;;28.08;34.41
28306;BME280;7516;43.570;1.448;2023-09-08T11:46:33;99640.44;;;28.15;34.13
28306;BME280;7516;43.570;1.448;2023-09-08T11:49:01;99639.84;;;28.23;34.35
28306;BME280;7516;43.570;1.448;2023-09-08T11:51:31;99633.66;;;28.23;34.11
28306;BME280;7516;43.570;1.448;2023-09-08T11:53:58;99639.84;;;28.23;34.11
28306;BME280;7516;43.570;1.448;2023-09-08T11:56:28;99635.09;;;28.34;34.18
28306;BME280;7516;43.570;1.448;2023-09-08T11:58:56;99630.88;;;28.47;33.74
28306;BME280;7516;43.570;1.448;2023-09-08T12:01:25;99634.59;;;28.51;33.77
28306;BME280;7516;43.570;1.448;2023-09-08T12:03:53;99642.63;;;28.56;33.69
28306;BME280;7516;43.570;1.448;2023-09-08T12:06:23;99630.00;;;28.51;33.88
28306;BME280;7516;43.570;1.448;2023-09-08T12:08:50;99633.44;;;28.57;34.20
28306;BME280;7516;43.570;1.448;2023-09-08T12:11:18;99632.78;;;28.65;33.77
28306;BME280;7516;43.570;1.448;2023-09-08T12:13:47;99635.38;;;28.70;33.56
28306;BME280;7516;43.570;1.448;2023-09-08T12:16:21;99624.53;;;28.75;33.36
28306;BME280;7516;43.570;1.448;2023-09-08T12:18:49;99623.38;;;28.81;33.60
28306;BME280;7516;43.570;1.448;2023-09-08T12:21:17;99634.06;;;28.86;33.66
28306;BME280;7516;43.570;1.448;2023-09-08T12:23:48;99623.22;;;28.91;33.03
28306;BME280;7516;43.570;1.448;2023-09-08T12:26:16;99625.63;;;28.93;32.75
28306;BME280;7516;43.570;1.448;2023-09-08T12:28:45;99617.03;;;29.04;33.05
28306;BME280;7516;43.570;1.448;2023-09-08T12:31:14;99613.06;;;29.15;32.77
28306;BME280;7516;43.570;1.448;2023-09-08T12:33:42;99609.28;;;29.16;32.38
28306;BME280;7516;43.570;1.448;2023-09-08T12:36:14;99616.78;;;29.19;32.41
28306;BME280;7516;43.570;1.448;2023-09-08T12:38:46;99600.88;;;29.18;32.68
28306;BME280;7516;43.570;1.448;2023-09-08T12:41:14;99595.03;;;29.43;31.92
28306;BME280;7516;43.570;1.448;2023-09-08T12:43:41;99594.75;;;29.45;32.22
28306;BME280;7516;43.570;1.448;2023-09-08T12:46:10;99599.84;;;29.60;31.27
28306;BME280;7516;43.570;1.448;2023-09-08T12:48:38;99601.97;;;29.63;31.57
28306;BME280;7516;43.570;1.448;2023-09-08T12:51:05;99597.94;;;29.61;31.31
28306;BME280;7516;43.570;1.448;2023-09-08T12:53:34;99591.53;;;29.56;31.68
28306;BME280;7516;43.570;1.448;2023-09-08T12:56:02;99594.53;;;29.69;31.73
28306;BME280;7516;43.570;1.448;2023-09-08T12:58:30;99584.63;;;29.78;31.44
28306;BME280;7516;43.570;1.448;2023-09-08T13:00:58;99580.09;;;29.73;31.59
28306;BME280;7516;43.570;1.448;2023-09-08T13:03:27;99577.28;;;29.92;31.34
28306;BME280;7516;43.570;1.448;2023-09-08T13:05:55;99575.78;;;30.00;30.65
28306;BME280;7516;43.570;1.448;2023-09-08T13:08:22;99576.81;;;30.04;30.71
28306;BME280;7516;43.570;1.448;2023-09-08T13:10:50;99568.47;;;30.00;30.29
28306;BME280;7516;43.570;1.448;2023-09-08T13:13:17;99571.91;;;30.06;30.14
28306;BME280;7516;43.570;1.448;2023-09-08T13:15:45;99562.47;;;30.03;30.39
28306;BME280;7516;43.570;1.448;2023-09-08T13:18:12;99557.06;;;30.17;29.93